createdAt,value
2022-11-23T00:01:19.628Z,7.90
2022-11-23T00:03:48.695Z,13.88
2022-11-23T00:06:16.158Z,13.90
2022-11-23T00:08:42.901Z,19.42
2022-11-23T00:11:09.765Z,14.07
2022-11-23T00:13:36.871Z,12.25
2022-11-23T00:16:07.892Z,12.13
2022-11-23T00:18:34.833Z,16.63
2022-11-23T00:21:06.455Z,12.10
2022-11-23T00:23:33.182Z,13.38
2022-11-23T00:25:59.709Z,16.50
2022-11-23T00:28:26.182Z,11.07
2022-11-23T00:30:52.773Z,11.82
2022-11-23T00:33:19.303Z,10.73
2022-11-23T00:35:45.853Z,14.25
2022-11-23T00:38:12.438Z,14.48
2022-11-23T00:40:39.103Z,12.25
2022-11-23T00:43:05.652Z,14.32
2022-11-23T00:45:32.871Z,15.07
2022-11-23T00:47:59.352Z,13.00
2022-11-23T00:50:25.884Z,11.25
2022-11-23T00:52:52.370Z,11.85
2022-11-23T00:55:19.666Z,12.88
2022-11-23T00:57:46.192Z,11.77
2022-11-23T01:00:13.121Z,13.82
2022-11-23T01:02:40.210Z,15.25
2022-11-23T01:05:07.002Z,13.80
2022-11-23T01:07:33.649Z,7.90
2022-11-23T01:10:00.264Z,12.55
2022-11-23T01:12:29.213Z,13.80
2022-11-23T01:14:55.700Z,13.07
2022-11-23T01:17:22.397Z,11.60
2022-11-23T01:19:48.904Z,12.02
2022-11-23T01:22:15.499Z,13.65
2022-11-23T01:24:42.571Z,11.40
2022-11-23T01:27:09.103Z,12.65
2022-11-23T01:29:35.618Z,14.25
2022-11-23T01:32:02.219Z,11.73
2022-11-23T01:34:28.856Z,7.47
2022-11-23T01:36:58.319Z,13.80
2022-11-23T01:39:27.650Z,10.50
2022-11-23T01:41:54.107Z,12.23
2022-11-23T01:44:32.429Z,13.45
2022-11-23T01:47:04.727Z,11.32
2022-11-23T01:49:44.868Z,11.35
2022-11-23T01:52:25.023Z,10.35
2022-11-23T01:54:54.808Z,7.80
2022-11-23T01:57:25.441Z,9.85
2022-11-23T01:59:53.358Z,8.77
2022-11-23T02:02:19.876Z,10.20
2022-11-23T02:04:52.145Z,9.18
2022-11-23T02:07:19.449Z,12.07
2022-11-23T02:09:46.942Z,10.00
2022-11-23T02:12:14.642Z,12.88
2022-11-23T02:14:43.295Z,9.82
2022-11-23T02:17:10.695Z,16.40
2022-11-23T02:20:10.244Z,10.65
2022-11-23T02:22:36.689Z,9.07
2022-11-23T02:25:10.939Z,9.65
2022-11-23T02:27:37.432Z,9.25
2022-11-23T02:30:04.421Z,9.90
2022-11-23T02:32:31.548Z,12.20
2022-11-23T02:34:58.254Z,10.63
2022-11-23T02:37:25.371Z,11.90
2022-11-23T02:39:54.527Z,9.23
2022-11-23T02:42:21.265Z,9.45
2022-11-23T02:44:56.913Z,14.95
2022-11-23T02:47:23.542Z,8.48
2022-11-23T02:49:50.170Z,15.30
2022-11-23T02:52:18.844Z,8.27
2022-11-23T02:54:45.750Z,11.07
2022-11-23T02:57:12.940Z,14.10
2022-11-23T02:59:43.988Z,9.75
2022-11-23T03:02:11.325Z,9.18
2022-11-23T03:04:37.823Z,9.93
2022-11-23T03:07:04.297Z,10.23
2022-11-23T03:09:32.749Z,10.68
2022-11-23T03:11:59.415Z,8.35
2022-11-23T03:14:28.061Z,10.25
2022-11-23T03:16:58.781Z,10.93
2022-11-23T03:19:25.416Z,10.05
2022-11-23T03:21:53.147Z,10.18
2022-11-23T03:24:19.759Z,8.43
2022-11-23T03:26:48.000Z,10.32
2022-11-23T03:29:19.171Z,6.60
2022-11-23T03:31:46.739Z,16.30
2022-11-23T03:34:15.104Z,10.63
2022-11-23T03:36:43.272Z,12.93
2022-11-23T03:39:09.943Z,9.98
2022-11-23T03:41:55.028Z,11.80
2022-11-23T03:44:24.683Z,14.68
2022-11-23T03:46:51.222Z,12.35
2022-11-23T03:49:17.725Z,11.88
2022-11-23T03:51:44.749Z,8.43
2022-11-23T03:54:12.148Z,12.65
2022-11-23T03:56:38.942Z,13.10
2022-11-23T03:59:05.643Z,12.07
2022-11-23T04:01:32.619Z,11.98
2022-11-23T04:04:04.211Z,12.55
2022-11-23T04:06:57.112Z,11.70
2022-11-23T04:09:27.407Z,11.90
2022-11-23T04:12:03.273Z,8.38
2022-11-23T04:14:30.039Z,10.18
2022-11-23T04:16:59.008Z,12.07
2022-11-23T04:19:25.672Z,13.73
2022-11-23T04:21:52.232Z,11.30
2022-11-23T04:24:18.888Z,13.82
2022-11-23T04:26:46.547Z,14.27
2022-11-23T04:29:13.139Z,15.98
2022-11-23T04:31:44.365Z,13.68
2022-11-23T04:34:16.902Z,10.20
2022-11-23T04:36:43.647Z,11.38
2022-11-23T04:39:12.540Z,11.40
2022-11-23T04:41:55.900Z,10.98
2022-11-23T04:44:22.709Z,13.18
2022-11-23T04:46:55.281Z,11.15
2022-11-23T04:49:22.133Z,9.18
2022-11-23T04:51:48.921Z,13.40
2022-11-23T04:54:18.501Z,12.48
2022-11-23T04:56:49.977Z,9.77
2022-11-23T04:59:17.674Z,11.23
2022-11-23T05:01:45.201Z,13.55
2022-11-23T05:04:30.127Z,16.87
2022-11-23T05:06:57.330Z,13.23
2022-11-23T05:09:24.367Z,12.50
2022-11-23T05:12:00.108Z,14.63
2022-11-23T05:14:27.135Z,11.80
2022-11-23T05:16:53.668Z,12.27
2022-11-23T05:19:20.865Z,18.70
2022-11-23T05:21:47.564Z,10.50
2022-11-23T05:24:15.512Z,8.75
2022-11-23T05:26:56.228Z,14.68
2022-11-23T05:29:23.266Z,13.25
2022-11-23T05:31:49.856Z,12.88
2022-11-23T05:34:17.285Z,13.70
2022-11-23T05:36:46.351Z,12.57
2022-11-23T05:39:13.724Z,15.68
2022-11-23T05:41:40.288Z,16.13
2022-11-23T05:44:20.232Z,11.32
2022-11-23T05:46:47.099Z,19.42
2022-11-23T05:49:14.548Z,16.00
2022-11-23T05:51:41.163Z,12.40
2022-11-23T05:54:08.368Z,18.20
2022-11-23T05:56:45.548Z,15.15
2022-11-23T05:59:15.316Z,15.95
2022-11-23T06:01:45.956Z,15.98
2022-11-23T06:04:20.075Z,18.02
2022-11-23T06:06:46.728Z,13.10
2022-11-23T06:09:13.259Z,13.52
2022-11-23T06:11:44.719Z,12.43
2022-11-23T06:14:14.790Z,13.60
2022-11-23T06:16:44.376Z,13.50
2022-11-23T06:19:20.827Z,10.50
2022-11-23T06:21:50.484Z,17.60
2022-11-23T06:24:19.217Z,15.68
2022-11-23T06:26:52.368Z,13.68
2022-11-23T06:29:20.564Z,13.52
2022-11-23T06:31:47.247Z,14.07
2022-11-23T06:34:14.424Z,13.88
2022-11-23T06:36:41.126Z,15.45
2022-11-23T06:39:08.176Z,13.90
2022-11-23T06:41:34.890Z,10.07
2022-11-23T06:44:02.723Z,12.70
2022-11-23T06:46:38.571Z,13.07
2022-11-23T06:49:05.150Z,13.85
2022-11-23T06:51:31.744Z,8.30
2022-11-23T06:53:58.261Z,13.85
2022-11-23T06:56:25.938Z,13.18
2022-11-23T06:58:52.520Z,15.85
2022-11-23T07:01:23.278Z,15.50
2022-11-23T07:03:55.664Z,11.30
2022-11-23T07:06:32.540Z,15.48
2022-11-23T07:09:04.051Z,16.52
2022-11-23T07:11:59.507Z,12.75
2022-11-23T07:14:26.291Z,14.77
2022-11-23T07:16:55.591Z,15.02
2022-11-23T07:19:22.788Z,11.20
2022-11-23T07:21:50.988Z,11.88
2022-11-23T07:24:17.528Z,11.73
2022-11-23T07:26:44.027Z,12.15
2022-11-23T07:29:10.971Z,12.13
2022-11-23T07:31:38.242Z,13.77
2022-11-23T07:34:05.201Z,11.45
2022-11-23T07:36:33.269Z,10.63
2022-11-23T07:38:59.884Z,13.00
2022-11-23T07:41:27.636Z,12.98
2022-11-23T07:44:17.183Z,12.65
2022-11-23T07:46:44.867Z,12.57
2022-11-23T07:49:11.394Z,12.98
2022-11-23T07:51:37.950Z,13.35
2022-11-23T07:54:04.468Z,14.25
2022-11-23T07:56:30.965Z,18.65
2022-11-23T07:58:57.448Z,15.23
2022-11-23T08:01:23.997Z,14.60
2022-11-23T08:03:50.727Z,13.57
2022-11-23T08:06:17.344Z,14.38
2022-11-23T08:08:44.697Z,13.88
2022-11-23T08:11:14.820Z,10.57
2022-11-23T08:13:41.696Z,14.30
2022-11-23T08:16:08.577Z,12.07
2022-11-23T08:18:35.321Z,15.30
2022-11-23T08:21:02.088Z,11.95
2022-11-23T08:23:29.293Z,15.30
2022-11-23T08:25:56.170Z,14.80
2022-11-23T08:28:23.095Z,10.55
2022-11-23T08:30:50.180Z,12.73
2022-11-23T08:33:17.267Z,14.40
2022-11-23T08:35:43.831Z,12.02
2022-11-23T08:38:11.279Z,9.98
2022-11-23T08:40:38.616Z,10.57
2022-11-23T08:43:05.786Z,14.10
2022-11-23T08:45:32.303Z,19.00
2022-11-23T08:48:03.189Z,11.38
2022-11-23T08:50:30.467Z,9.85
2022-11-23T08:52:58.642Z,11.93
2022-11-23T08:55:26.767Z,11.20
2022-11-23T08:57:57.703Z,12.98
2022-11-23T09:00:25.046Z,12.82
2022-11-23T09:02:51.680Z,7.97
2022-11-23T09:05:18.213Z,10.05
2022-11-23T09:07:44.812Z,11.38
2022-11-23T09:10:17.902Z,10.98
2022-11-23T09:12:46.408Z,11.48
2022-11-23T09:15:12.982Z,9.70
2022-11-23T09:17:39.749Z,10.57
2022-11-23T09:20:06.964Z,14.95
2022-11-23T09:22:33.547Z,17.77
2022-11-23T09:25:00.221Z,12.98
2022-11-23T09:27:26.912Z,14.02
2022-11-23T09:29:53.467Z,13.73
2022-11-23T09:32:19.927Z,9.90
2022-11-23T09:34:46.536Z,10.20
2022-11-23T09:37:14.039Z,12.93
2022-11-23T09:39:40.595Z,8.55
2022-11-23T09:42:44.590Z,11.52
2022-11-23T09:45:37.709Z,8.80
2022-11-23T09:48:18.074Z,11.23
2022-11-23T09:50:54.221Z,7.60
2022-11-23T09:53:28.668Z,10.05
2022-11-23T09:55:56.883Z,13.85
2022-11-23T09:58:27.978Z,12.07
2022-11-23T10:01:02.019Z,12.20
2022-11-23T10:03:32.897Z,9.25
2022-11-23T10:06:07.391Z,11.43
2022-11-23T10:08:47.410Z,8.13
2022-11-23T10:11:44.939Z,11.05
2022-11-23T10:14:35.455Z,10.48
2022-11-23T10:17:20.032Z,10.55
2022-11-23T10:20:23.928Z,15.00
2022-11-23T10:23:01.836Z,8.88
2022-11-23T10:25:44.663Z,10.35
2022-11-23T10:28:17.240Z,8.57
2022-11-23T10:30:51.007Z,7.97
2022-11-23T10:33:29.908Z,11.73
2022-11-23T10:35:56.368Z,8.85
2022-11-23T10:38:26.682Z,9.43
2022-11-23T10:41:11.727Z,8.18
2022-11-23T10:44:02.093Z,8.38
2022-11-23T10:46:33.159Z,12.02
2022-11-23T10:49:19.490Z,11.77
2022-11-23T10:51:54.875Z,8.15
2022-11-23T10:57:22.288Z,8.90
2022-11-23T11:00:13.025Z,5.78
2022-11-23T11:02:42.090Z,8.52
2022-11-23T11:06:07.026Z,10.88
2022-11-23T11:08:21.070Z,7.55
2022-11-23T11:11:04.778Z,9.95
2022-11-23T11:13:44.903Z,11.07
2022-11-23T11:16:36.440Z,6.78
2022-11-23T11:19:29.229Z,6.68
2022-11-23T11:21:57.960Z,8.25
2022-11-23T11:24:37.856Z,8.63
2022-11-23T11:27:15.716Z,7.65
2022-11-23T11:29:45.273Z,8.55
2022-11-23T11:32:25.861Z,9.50
2022-11-23T11:35:03.543Z,8.32
2022-11-23T11:37:32.981Z,8.32
2022-11-23T11:40:45.415Z,7.35
2022-11-23T11:43:16.032Z,6.55
2022-11-23T11:45:54.484Z,5.50
2022-11-23T11:48:53.500Z,7.43
2022-11-23T11:51:32.045Z,8.02
2022-11-23T11:54:22.790Z,6.57
2022-11-23T11:56:51.882Z,6.80
2022-11-23T11:59:42.613Z,5.57
2022-11-23T12:02:31.841Z,9.77
2022-11-23T12:05:24.083Z,4.95
2022-11-23T12:08:30.711Z,6.53
2022-11-23T12:13:35.200Z,6.95
2022-11-23T12:16:16.212Z,7.60
2022-11-23T12:19:02.895Z,5.32
2022-11-23T12:21:43.503Z,5.22
2022-11-23T12:24:34.564Z,5.63
2022-11-23T12:27:37.196Z,7.13
2022-11-23T12:30:14.981Z,7.43
2022-11-23T12:32:57.583Z,6.85
2022-11-23T12:35:51.176Z,6.95
2022-11-23T12:38:39.149Z,5.60
2022-11-23T12:41:23.908Z,6.40
2022-11-23T12:43:57.720Z,7.63
2022-11-23T12:46:35.304Z,6.60
2022-11-23T12:49:39.310Z,8.75
2022-11-23T12:52:42.396Z,4.25
2022-11-23T12:55:26.110Z,5.07
2022-11-23T12:58:19.571Z,7.45
2022-11-23T13:00:54.279Z,6.75
2022-11-23T13:03:42.708Z,9.07
2022-11-23T13:06:59.319Z,4.70
2022-11-23T13:09:47.079Z,9.13
2022-11-23T13:12:40.052Z,10.15
2022-11-23T13:15:36.418Z,6.68
2022-11-23T13:18:17.924Z,8.57
2022-11-23T13:21:02.764Z,6.10
2022-11-23T13:23:35.175Z,3.67
2022-11-23T13:26:22.645Z,6.40
2022-11-23T13:28:52.175Z,5.90
2022-11-23T13:31:21.045Z,6.60
2022-11-23T13:33:58.867Z,7.28
2022-11-23T13:37:10.419Z,5.55
2022-11-23T13:39:43.167Z,3.45
2022-11-23T13:42:11.409Z,3.03
2022-11-23T13:44:38.141Z,3.90
2022-11-23T13:47:18.099Z,5.75
2022-11-23T13:49:52.960Z,6.32
2022-11-23T13:52:22.763Z,9.05
2022-11-23T13:55:08.853Z,5.97
2022-11-23T13:57:41.813Z,3.65
2022-11-23T14:00:45.589Z,5.68
2022-11-23T14:03:43.289Z,6.30
2022-11-23T14:06:39.923Z,4.88
2022-11-23T14:09:57.068Z,5.47
2022-11-23T14:15:06.291Z,3.58
2022-11-23T14:18:17.676Z,4.47
2022-11-23T14:20:55.577Z,5.72
2022-11-23T14:23:46.687Z,3.88
2022-11-23T14:26:25.159Z,4.80
2022-11-23T14:29:26.756Z,5.85
2022-11-23T14:32:28.824Z,7.03
2022-11-23T14:35:20.549Z,6.47
2022-11-23T14:38:03.772Z,4.70
2022-11-23T14:41:01.333Z,8.25
2022-11-23T14:43:28.894Z,5.40
2022-11-23T14:46:02.881Z,5.65
2022-11-23T14:48:35.083Z,4.72
2022-11-23T14:51:06.009Z,4.07
2022-11-23T14:53:44.059Z,4.22
2022-11-23T14:56:45.233Z,5.72
2022-11-23T14:59:17.728Z,6.15
2022-11-23T15:01:50.406Z,5.03
2022-11-23T15:04:35.252Z,8.27
2022-11-23T15:07:24.795Z,7.72
2022-11-23T15:10:02.315Z,4.93
2022-11-23T15:12:42.488Z,5.18
2022-11-23T15:15:19.373Z,7.88
2022-11-23T15:17:51.941Z,7.50
2022-11-23T15:20:19.088Z,5.38
2022-11-23T15:22:45.724Z,6.65
2022-11-23T15:25:16.148Z,5.20
2022-11-23T15:27:42.833Z,8.10
2022-11-23T15:30:27.143Z,8.07
2022-11-23T15:33:08.893Z,6.32
2022-11-23T15:35:37.921Z,7.10
2022-11-23T15:38:12.022Z,5.10
2022-11-23T15:40:41.434Z,7.63
2022-11-23T15:43:16.365Z,4.15
2022-11-23T15:45:46.195Z,5.22
2022-11-23T15:48:27.352Z,6.85
2022-11-23T15:50:59.837Z,5.53
2022-11-23T15:53:42.436Z,5.95
2022-11-23T15:56:22.486Z,4.78
2022-11-23T15:58:51.273Z,5.10
2022-11-23T16:01:18.142Z,5.55
2022-11-23T16:04:04.870Z,6.40
2022-11-23T16:06:42.481Z,4.93
2022-11-23T16:09:58.463Z,3.72
2022-11-23T16:12:30.375Z,5.13
2022-11-23T16:14:59.260Z,6.40
2022-11-23T16:17:28.151Z,6.25
2022-11-23T16:20:01.645Z,3.13
2022-11-23T16:22:36.641Z,5.32
2022-11-23T16:25:26.430Z,3.22
2022-11-23T16:28:03.844Z,5.80
2022-11-23T16:30:41.713Z,4.75
2022-11-23T16:33:16.770Z,8.95
2022-11-23T16:35:43.722Z,3.50
2022-11-23T16:38:10.665Z,4.13
2022-11-23T16:40:37.406Z,4.07
2022-11-23T16:43:04.331Z,6.25
2022-11-23T16:45:32.110Z,3.65
2022-11-23T16:48:04.993Z,2.42
2022-11-23T16:50:33.781Z,3.97
2022-11-23T16:53:17.621Z,6.00
2022-11-23T16:55:53.371Z,2.65
2022-11-23T16:58:20.520Z,3.92
2022-11-23T17:00:49.103Z,3.08
2022-11-23T17:03:17.062Z,3.17
2022-11-23T17:05:43.807Z,3.70
2022-11-23T17:08:10.477Z,5.55
2022-11-23T17:10:38.729Z,4.03
2022-11-23T17:13:09.756Z,3.05
2022-11-23T17:15:38.078Z,3.35
2022-11-23T17:18:05.181Z,4.72
2022-11-23T17:20:31.715Z,4.28
2022-11-23T17:23:01.156Z,3.55
2022-11-23T17:25:27.918Z,5.25
2022-11-23T17:27:54.493Z,3.72
2022-11-23T17:30:22.359Z,4.75
2022-11-23T17:32:49.640Z,6.38
2022-11-23T17:35:16.857Z,4.40
2022-11-23T17:37:43.910Z,4.25
2022-11-23T17:40:15.663Z,3.72
2022-11-23T17:42:42.196Z,5.65
2022-11-23T17:45:09.138Z,3.65
2022-11-23T17:47:36.211Z,4.43
2022-11-23T17:50:03.151Z,3.10
2022-11-23T17:52:29.767Z,5.07
2022-11-23T17:54:56.300Z,5.28
2022-11-23T17:57:24.573Z,4.75
2022-11-23T17:59:51.659Z,4.95
2022-11-23T18:02:19.497Z,5.95
2022-11-23T18:04:47.353Z,6.40
2022-11-23T18:07:15.377Z,4.28
2022-11-23T18:09:42.778Z,5.93
2022-11-23T18:12:09.923Z,4.22
2022-11-23T18:14:37.277Z,5.80
2022-11-23T18:17:03.911Z,4.93
2022-11-23T18:19:30.680Z,6.63
2022-11-23T18:21:57.296Z,5.28
2022-11-23T18:24:24.025Z,4.70
2022-11-23T18:26:50.662Z,5.72
2022-11-23T18:29:17.596Z,5.07
2022-11-23T18:31:44.355Z,7.22
2022-11-23T18:34:11.091Z,6.38
2022-11-23T18:36:37.658Z,8.20
2022-11-23T18:39:04.187Z,6.75
2022-11-23T18:41:30.890Z,4.75
2022-11-23T18:43:57.355Z,4.65
2022-11-23T18:46:24.332Z,4.93
2022-11-23T18:48:51.522Z,5.47
2022-11-23T18:51:18.325Z,7.00
2022-11-23T18:53:47.398Z,7.13
2022-11-23T18:56:14.088Z,5.18
2022-11-23T18:58:42.260Z,9.07
2022-11-23T19:01:14.323Z,6.05
2022-11-23T19:03:42.292Z,6.55
2022-11-23T19:06:13.576Z,8.55
2022-11-23T19:08:42.322Z,7.32
2022-11-23T19:11:16.096Z,6.13
2022-11-23T19:13:47.072Z,6.00
2022-11-23T19:16:16.425Z,4.97
2022-11-23T19:18:43.470Z,11.40
2022-11-23T19:21:13.323Z,5.68
2022-11-23T19:23:40.166Z,6.35
2022-11-23T19:26:06.802Z,9.55
2022-11-23T19:28:33.949Z,5.10
2022-11-23T19:31:18.788Z,7.15
2022-11-23T19:33:47.292Z,5.55
2022-11-23T19:36:19.358Z,7.30
2022-11-23T19:38:46.094Z,9.15
2022-11-23T19:41:12.731Z,6.82
2022-11-23T19:43:39.469Z,6.93
2022-11-23T19:46:07.511Z,7.95
2022-11-23T19:48:34.690Z,10.13
2022-11-23T19:51:04.644Z,8.48
2022-11-23T19:53:35.438Z,7.38
2022-11-23T19:56:07.397Z,7.97
2022-11-23T19:58:35.058Z,7.50
2022-11-23T20:01:07.328Z,6.65
2022-11-23T20:03:34.680Z,8.60
2022-11-23T20:06:03.841Z,7.72
2022-11-23T20:08:30.687Z,12.55
2022-11-23T20:10:57.665Z,7.53
2022-11-23T20:13:24.674Z,10.77
2022-11-23T20:15:51.403Z,10.82
2022-11-23T20:18:19.075Z,9.20
2022-11-23T20:20:47.431Z,12.30
2022-11-23T20:23:17.089Z,9.55
2022-11-23T20:25:43.697Z,11.02
2022-11-23T20:28:16.303Z,11.27
2022-11-23T20:30:43.454Z,14.80
2022-11-23T20:33:10.292Z,9.07
2022-11-23T20:35:36.928Z,14.15
2022-11-23T20:38:05.203Z,13.65
2022-11-23T20:40:32.635Z,8.70
2022-11-23T20:42:59.601Z,12.98
2022-11-23T20:45:26.749Z,15.13
2022-11-23T20:47:54.717Z,14.23
2022-11-23T20:50:27.028Z,17.58
2022-11-23T20:52:54.954Z,17.58
2022-11-23T20:55:23.369Z,14.52
2022-11-23T20:57:51.413Z,18.17
2022-11-23T21:00:20.599Z,19.20
2022-11-23T21:02:55.767Z,14.52
2022-11-23T21:05:22.414Z,14.35
2022-11-23T21:07:49.059Z,11.90
2022-11-23T21:10:34.288Z,16.30
2022-11-23T21:13:22.829Z,15.43
2022-11-23T21:15:49.492Z,15.48
2022-11-23T21:18:16.101Z,18.23
2022-11-23T21:20:43.428Z,13.65
2022-11-23T21:23:10.091Z,13.52
2022-11-23T21:25:36.626Z,14.13
2022-11-23T21:28:03.416Z,16.58
2022-11-23T21:30:30.927Z,15.43
2022-11-23T21:32:57.573Z,15.63
2022-11-23T21:35:24.787Z,15.07
2022-11-23T21:37:51.445Z,20.55
2022-11-23T21:40:18.184Z,17.38
2022-11-23T21:42:44.887Z,17.25
2022-11-23T21:45:12.073Z,16.00
2022-11-23T21:47:38.709Z,12.18
2022-11-23T21:50:05.555Z,14.75
2022-11-23T21:52:32.187Z,13.23
2022-11-23T21:54:58.719Z,22.48
2022-11-23T21:57:25.356Z,16.92
2022-11-23T21:59:51.890Z,18.13
2022-11-23T22:02:18.459Z,16.92
2022-11-23T22:04:45.167Z,16.70
2022-11-23T22:07:12.055Z,18.48
2022-11-23T22:09:38.847Z,13.35
2022-11-23T22:12:06.304Z,14.55
2022-11-23T22:14:33.134Z,14.18
2022-11-23T22:17:00.604Z,17.00
2022-11-23T22:19:27.348Z,16.67
2022-11-23T22:21:53.974Z,17.20
2022-11-23T22:24:22.569Z,18.58
2022-11-23T22:26:49.396Z,19.83
2022-11-23T22:29:16.339Z,18.88
2022-11-23T22:31:43.894Z,17.30
2022-11-23T22:34:12.082Z,16.88
2022-11-23T22:36:39.058Z,17.85
2022-11-23T22:39:06.883Z,20.00
2022-11-23T22:41:36.860Z,18.23
2022-11-23T22:44:06.196Z,19.67
2022-11-23T22:46:32.935Z,15.88
2022-11-23T22:48:59.877Z,16.92
2022-11-23T22:51:28.590Z,19.40
2022-11-23T22:54:00.219Z,19.63
2022-11-23T22:56:27.676Z,16.33
2022-11-23T22:58:54.413Z,19.65
2022-11-23T23:01:24.939Z,18.42
2022-11-23T23:03:56.037Z,23.92
2022-11-23T23:06:25.591Z,19.30
2022-11-23T23:09:03.287Z,16.08
2022-11-23T23:11:32.373Z,16.50
2022-11-23T23:13:59.827Z,12.60
2022-11-23T23:16:27.172Z,19.40
2022-11-23T23:18:58.027Z,16.10
2022-11-23T23:21:26.608Z,20.52
2022-11-23T23:23:55.696Z,18.23
2022-11-23T23:26:24.582Z,17.30
2022-11-23T23:28:56.184Z,21.40
2022-11-23T23:31:23.137Z,15.10
2022-11-23T23:33:49.918Z,17.67
2022-11-23T23:36:19.833Z,19.45
2022-11-23T23:38:46.877Z,17.13
2022-11-23T23:41:14.641Z,20.52
2022-11-23T23:43:43.136Z,22.52
2022-11-23T23:46:12.524Z,22.40
2022-11-23T23:48:40.182Z,19.90
2022-11-23T23:51:08.660Z,19.05
2022-11-23T23:53:36.427Z,17.75
2022-11-23T23:56:05.734Z,17.00
2022-11-23T23:58:32.358Z,18.52
